Time;durP1;ratioP1;P1;durP2;ratioP2;P2;SDS_P1;SDS_P2;PMS_P1;PMS_P2;Temp;Humidity;BMP_temperature;BMP_pressure;BME280_temperature;BME280_humidity;BME280_pressure;Samples;Min_cycle;Max_cycle;Signal;HPM_P1;HPM_P2
2023/10/06 00:01:42;;;;;;;14.35;9.05;;;16.70;99.90;;;;;;4999584;28;20032;-76
2023/10/06 00:04:12;;;;;;;15.55;9.20;;;16.80;99.90;;;;;;4989209;28;20463;-76
2023/10/06 00:06:42;;;;;;;19.02;9.85;;;16.90;99.90;;;;;;4995228;28;20022;-76
2023/10/06 00:09:48;;;;;;;13.02;8.65;;;16.90;99.90;;;;;;4991475;28;20022;-76
2023/10/06 00:12:07;;;;;;;13.00;8.80;;;16.90;99.90;;;;;;4987359;28;20057;-75
2023/10/06 00:14:38;;;;;;;14.57;9.40;;;17.00;99.90;;;;;;4989606;28;20436;-76
2023/10/06 00:17:11;;;;;;;14.13;8.75;;;17.00;99.90;;;;;;4988686;28;20037;-76
2023/10/06 00:19:38;;;;;;;14.95;8.95;;;16.90;99.90;;;;;;4989585;28;20580;-76
2023/10/06 00:22:18;;;;;;;14.55;9.07;;;17.00;99.90;;;;;;4992267;28;20121;-75
2023/10/06 00:24:50;;;;;;;13.75;7.88;;;17.00;99.90;;;;;;5000176;28;20074;-76
2023/10/06 00:27:24;;;;;;;17.60;8.68;;;17.00;99.90;;;;;;4995464;28;25454;-76
2023/10/06 00:29:56;;;;;;;13.65;8.52;;;17.00;99.90;;;;;;4988292;28;20038;-76
2023/10/06 00:34:54;;;;;;;14.70;9.15;;;17.10;99.90;;;;;;4988392;28;20520;-76
2023/10/06 00:37:23;;;;;;;15.38;9.32;;;17.10;99.90;;;;;;4989183;28;20034;-76
2023/10/06 00:39:50;;;;;;;12.35;8.43;;;17.10;99.90;;;;;;4984933;28;20069;-75
2023/10/06 00:42:20;;;;;;;13.38;8.00;;;17.00;99.90;;;;;;4986069;28;20038;-79
2023/10/06 00:44:46;;;;;;;18.17;9.18;;;16.90;99.90;;;;;;4994991;28;20034;-76
2023/10/06 00:47:13;;;;;;;15.13;9.18;;;16.90;99.90;;;;;;4991589;28;20544;-75
2023/10/06 00:49:43;;;;;;;12.82;8.82;;;16.90;99.90;;;;;;4991439;28;20035;-76
2023/10/06 00:52:11;;;;;;;11.50;7.95;;;16.90;99.90;;;;;;4989485;28;20042;-76
2023/10/06 00:54:49;;;;;;;13.07;8.82;;;16.90;99.90;;;;;;4988435;28;20026;-76
2023/10/06 00:57:19;;;;;;;13.85;7.63;;;16.70;99.90;;;;;;4990441;28;20030;-76
2023/10/06 00:59:45;;;;;;;12.90;8.48;;;16.60;99.90;;;;;;4999532;28;20181;-76
2023/10/06 01:02:12;;;;;;;15.38;9.00;;;16.50;99.90;;;;;;4987604;28;20129;-76
2023/10/06 01:04:43;;;;;;;12.52;9.63;;;16.60;99.90;;;;;;4987596;28;20029;-76
2023/10/06 01:07:12;;;;;;;16.33;9.15;;;16.80;99.90;;;;;;4986246;28;20485;-78
2023/10/06 01:09:38;;;;;;;12.82;8.90;;;16.80;99.90;;;;;;4988882;28;20057;-76
2023/10/06 01:12:10;;;;;;;16.15;8.93;;;16.80;99.90;;;;;;4987227;28;20045;-76
2023/10/06 01:14:36;;;;;;;12.50;8.68;;;16.80;99.90;;;;;;4987515;28;20038;-76
2023/10/06 01:17:14;;;;;;;15.98;8.68;;;16.70;99.90;;;;;;4992824;28;20038;-76
2023/10/06 01:19:47;;;;;;;13.77;9.05;;;16.50;99.90;;;;;;4994424;28;20440;-77
2023/10/06 01:22:24;;;;;;;14.43;9.65;;;16.60;99.90;;;;;;4987750;28;20031;-76
2023/10/06 01:24:53;;;;;;;13.70;7.53;;;16.50;99.90;;;;;;4984455;28;20026;-76
2023/10/06 01:27:20;;;;;;;14.93;8.80;;;16.40;99.90;;;;;;4992743;28;20030;-76
2023/10/06 01:29:51;;;;;;;13.85;9.07;;;16.40;99.90;;;;;;4988537;28;20076;-76
2023/10/06 01:32:17;;;;;;;15.07;8.95;;;16.40;99.90;;;;;;4991874;28;20044;-76
2023/10/06 01:34:44;;;;;;;15.20;9.85;;;16.60;99.90;;;;;;4987186;28;20465;-76
2023/10/06 01:37:10;;;;;;;17.02;9.38;;;16.70;99.90;;;;;;4988783;28;20056;-76
2023/10/06 01:39:36;;;;;;;13.45;8.63;;;16.70;99.90;;;;;;4989495;28;20532;-76
2023/10/06 01:42:11;;;;;;;15.30;9.15;;;16.70;99.90;;;;;;4986755;28;20080;-76
2023/10/06 01:44:37;;;;;;;13.75;9.00;;;16.70;99.90;;;;;;4985983;28;20400;-76
2023/10/06 01:47:04;;;;;;;12.80;8.75;;;16.60;99.90;;;;;;4989033;28;20444;-76
2023/10/06 01:49:31;;;;;;;15.23;9.02;;;16.50;99.90;;;;;;4986190;28;20137;-75
2023/10/06 01:51:57;;;;;;;14.73;8.93;;;16.50;99.90;;;;;;4988976;28;20037;-77
2023/10/06 01:54:27;;;;;;;15.23;9.88;;;16.50;99.90;;;;;;4991768;28;20022;-76
2023/10/06 01:56:54;;;;;;;14.40;9.77;;;16.50;99.90;;;;;;4995471;28;20508;-78
2023/10/06 01:59:20;;;;;;;13.07;8.75;;;16.50;99.90;;;;;;4994911;28;20108;-76
2023/10/06 02:01:47;;;;;;;14.63;9.57;;;16.60;99.90;;;;;;4997965;28;20029;-76
2023/10/06 02:04:19;;;;;;;15.30;9.90;;;16.60;99.90;;;;;;4993884;28;20404;-76
2023/10/06 02:06:45;;;;;;;16.02;9.63;;;16.80;99.90;;;;;;4990363;28;21199;-77
2023/10/06 02:09:25;;;;;;;15.52;10.52;;;16.90;99.90;;;;;;4992907;28;20038;-76
2023/10/06 02:11:51;;;;;;;15.18;9.20;;;16.90;99.90;;;;;;4992161;28;20034;-76
2023/10/06 02:14:17;;;;;;;14.60;8.95;;;17.00;99.90;;;;;;4983012;28;20546;-76
2023/10/06 02:16:48;;;;;;;12.63;9.73;;;16.90;99.90;;;;;;4988858;28;20731;-75
2023/10/06 02:19:17;;;;;;;12.77;8.07;;;16.90;99.90;;;;;;4994149;28;20042;-76
2023/10/06 02:21:42;;;;;;;12.77;8.88;;;16.90;99.90;;;;;;4991922;28;20469;-76
2023/10/06 02:24:09;;;;;;;12.57;8.63;;;16.90;99.90;;;;;;4994043;28;20034;-76
2023/10/06 02:26:37;;;;;;;11.98;8.32;;;16.90;99.90;;;;;;5007113;28;20029;-76
2023/10/06 02:29:15;;;;;;;16.27;9.40;;;16.90;99.90;;;;;;4990413;28;20189;-76
2023/10/06 02:31:41;;;;;;;14.93;9.27;;;16.80;99.90;;;;;;4997686;28;20025;-76
2023/10/06 02:34:13;;;;;;;15.90;9.82;;;16.80;99.90;;;;;;4991421;28;20049;-76
2023/10/06 02:36:41;;;;;;;15.43;9.32;;;16.80;99.90;;;;;;4992525;28;20042;-76
2023/10/06 02:39:07;;;;;;;18.27;11.27;;;16.90;99.90;;;;;;4990957;28;20515;-76
2023/10/06 02:41:34;;;;;;;14.43;10.98;;;17.00;99.90;;;;;;4997461;28;20030;-76
2023/10/06 02:44:13;;;;;;;17.95;10.88;;;16.80;99.90;;;;;;5000857;28;20030;-76
2023/10/06 02:46:39;;;;;;;16.08;10.30;;;16.70;99.90;;;;;;4993599;28;20050;-76
2023/10/06 02:49:08;;;;;;;16.58;11.35;;;16.70;99.90;;;;;;4996293;28;20030;-76
2023/10/06 02:51:47;;;;;;;19.83;10.25;;;16.60;99.90;;;;;;4998966;28;20117;-76
2023/10/06 02:56:40;;;;;;;14.23;9.45;;;16.60;99.90;;;;;;5002574;28;20062;-75
2023/10/06 02:59:20;;;;;;;13.88;10.25;;;16.70;99.90;;;;;;5006832;28;20115;-75
2023/10/06 03:01:56;;;;;;;14.20;10.60;;;16.70;99.90;;;;;;4993284;28;20065;-75
2023/10/06 03:04:25;;;;;;;17.17;11.02;;;16.80;99.90;;;;;;4986373;28;20029;-76
2023/10/06 03:06:58;;;;;;;15.93;11.05;;;16.90;99.90;;;;;;4993877;28;20041;-76
2023/10/06 03:09:37;;;;;;;19.52;12.55;;;17.00;99.90;;;;;;4986438;28;20400;-78
2023/10/06 03:12:15;;;;;;;16.30;11.88;;;17.00;99.90;;;;;;4986600;28;20027;-76
2023/10/06 03:14:42;;;;;;;18.38;11.57;;;17.00;99.90;;;;;;4987996;28;20062;-77
2023/10/06 03:17:10;;;;;;;18.83;11.00;;;16.90;99.90;;;;;;4984698;28;20627;-79
2023/10/06 03:19:40;;;;;;;15.45;10.45;;;17.00;99.90;;;;;;4993293;28;20030;-77
2023/10/06 03:22:12;;;;;;;16.05;10.00;;;16.90;99.90;;;;;;4985757;28;20675;-77
2023/10/06 03:25:20;;;;;;;17.38;10.95;;;16.90;99.90;;;;;;4986348;28;20378;-77
2023/10/06 03:27:27;;;;;;;16.58;10.85;;;16.70;99.90;;;;;;4987259;28;20037;-77
2023/10/06 03:29:56;;;;;;;17.40;11.38;;;16.60;99.90;;;;;;4999345;28;20034;-77
2023/10/06 03:32:32;;;;;;;13.55;10.18;;;16.60;99.90;;;;;;4987329;28;20100;-77
2023/10/06 03:37:52;;;;;;;21.58;12.82;;;16.80;99.90;;;;;;4987948;28;20041;-76
2023/10/06 03:40:42;;;;;;;18.70;12.65;;;16.80;99.90;;;;;;4986241;28;20103;-76
2023/10/06 03:43:08;;;;;;;20.05;11.82;;;16.70;99.90;;;;;;4993507;28;20043;-74
2023/10/06 03:45:34;;;;;;;16.33;10.35;;;16.70;99.90;;;;;;4993871;28;20033;-77
2023/10/06 03:48:13;;;;;;;19.17;11.30;;;16.70;99.90;;;;;;4991030;28;20076;-76
2023/10/06 03:50:40;;;;;;;15.30;9.98;;;16.80;99.90;;;;;;4986328;28;20035;-76
2023/10/06 03:53:11;;;;;;;17.00;10.60;;;17.00;99.90;;;;;;4990252;28;20054;-76
2023/10/06 03:55:39;;;;;;;14.75;11.48;;;17.10;99.90;;;;;;4990547;28;20033;-77
2023/10/06 03:58:08;;;;;;;16.83;11.05;;;17.00;99.90;;;;;;4994571;28;20034;-77
2023/10/06 04:00:47;;;;;;;17.73;11.48;;;17.00;99.90;;;;;;4989678;28;20038;-77
2023/10/06 04:03:14;;;;;;;17.48;10.63;;;17.00;99.90;;;;;;4990818;28;20034;-76
2023/10/06 04:05:41;;;;;;;15.82;11.63;;;17.00;99.90;;;;;;4996523;28;20637;-77
2023/10/06 04:08:17;;;;;;;16.70;11.23;;;16.90;99.90;;;;;;4988725;28;20066;-76
2023/10/06 04:10:54;;;;;;;15.98;10.88;;;16.80;99.90;;;;;;4991702;28;20037;-79
2023/10/06 04:13:20;;;;;;;21.02;11.63;;;16.50;99.90;;;;;;4986053;28;20060;-81
2023/10/06 04:15:50;;;;;;;17.85;10.60;;;16.50;99.90;;;;;;4988130;28;20981;-76
2023/10/06 04:18:17;;;;;;;17.15;11.23;;;16.60;99.90;;;;;;4987648;28;20116;-77
2023/10/06 04:20:45;;;;;;;18.70;10.40;;;16.70;99.90;;;;;;4988368;28;20038;-79
2023/10/06 04:23:12;;;;;;;14.82;11.23;;;16.80;99.90;;;;;;4990029;28;20028;-76
2023/10/06 04:25:39;;;;;;;18.08;11.07;;;16.80;99.90;;;;;;4985041;28;20048;-76
2023/10/06 04:28:09;;;;;;;16.08;10.80;;;16.90;99.90;;;;;;4986231;28;20026;-78
2023/10/06 04:30:38;;;;;;;16.15;9.68;;;16.80;99.90;;;;;;4991409;28;20034;-76
2023/10/06 04:33:04;;;;;;;20.35;10.63;;;16.80;99.90;;;;;;4997944;28;20066;-76
2023/10/06 04:35:33;;;;;;;14.00;9.07;;;16.80;99.90;;;;;;4988445;28;20056;-76
2023/10/06 04:38:00;;;;;;;16.55;10.88;;;16.80;99.90;;;;;;4981730;28;20034;-80
2023/10/06 04:40:27;;;;;;;16.88;10.75;;;16.80;99.90;;;;;;4989137;28;20164;-80
2023/10/06 04:42:54;;;;;;;18.27;11.43;;;16.50;99.90;;;;;;4985381;28;20384;-75
2023/10/06 04:45:20;;;;;;;14.02;9.95;;;16.30;99.90;;;;;;4987557;28;20065;-76
2023/10/06 04:47:46;;;;;;;15.45;9.93;;;16.30;99.90;;;;;;4992300;28;20057;-76
2023/10/06 04:50:12;;;;;;;16.30;10.15;;;16.20;99.90;;;;;;4984789;28;20030;-78
2023/10/06 04:52:42;;;;;;;15.45;10.45;;;16.10;99.90;;;;;;4992853;28;20073;-77
2023/10/06 04:55:13;;;;;;;18.85;10.15;;;16.10;99.90;;;;;;4985850;28;20035;-76
2023/10/06 04:57:40;;;;;;;15.38;10.35;;;16.20;99.90;;;;;;4997109;28;20018;-75
2023/10/06 05:00:13;;;;;;;13.80;10.23;;;16.40;99.90;;;;;;4996862;28;20559;-76
2023/10/06 05:02:42;;;;;;;14.57;9.63;;;16.40;99.90;;;;;;4984734;28;20050;-76
2023/10/06 05:05:12;;;;;;;14.20;9.00;;;16.40;99.90;;;;;;4987147;28;20046;-77
2023/10/06 05:07:38;;;;;;;14.63;9.40;;;16.30;99.90;;;;;;4985871;28;20096;-77
2023/10/06 05:10:08;;;;;;;15.48;10.10;;;16.30;99.90;;;;;;4985343;28;20061;-78
2023/10/06 05:12:37;;;;;;;15.60;9.38;;;16.40;99.90;;;;;;4994443;28;20042;-76
2023/10/06 05:15:09;;;;;;;18.50;10.13;;;16.40;99.90;;;;;;4986355;28;20026;-77
2023/10/06 05:17:35;;;;;;;13.98;9.50;;;16.40;99.90;;;;;;4985116;28;20596;-77
2023/10/06 05:20:02;;;;;;;17.27;9.43;;;16.30;99.90;;;;;;4983220;28;20154;-75
2023/10/06 05:22:27;;;;;;;18.80;9.07;;;16.20;99.90;;;;;;4991852;28;20538;-76
2023/10/06 05:24:53;;;;;;;14.70;10.30;;;16.20;99.90;;;;;;4983313;28;20038;-76
2023/10/06 05:27:19;;;;;;;14.45;9.55;;;16.10;99.90;;;;;;4986394;28;21054;-77
2023/10/06 05:29:46;;;;;;;14.82;10.23;;;15.90;99.90;;;;;;4986365;28;20591;-75
2023/10/06 05:32:13;;;;;;;13.07;9.50;;;15.80;99.90;;;;;;4994463;28;20043;-75
2023/10/06 05:34:40;;;;;;;14.38;10.15;;;15.70;99.90;;;;;;4981138;28;20614;-75
2023/10/06 05:37:08;;;;;;;12.20;9.30;;;15.60;99.90;;;;;;4987716;28;20248;-78
2023/10/06 05:39:35;;;;;;;15.10;10.23;;;15.70;99.90;;;;;;4993312;28;20129;-76
2023/10/06 05:42:02;;;;;;;14.70;10.18;;;15.70;99.90;;;;;;4988448;28;20062;-77
2023/10/06 05:44:28;;;;;;;15.55;9.80;;;15.70;99.90;;;;;;4991067;28;20096;-77
2023/10/06 05:46:54;;;;;;;15.65;10.10;;;15.50;99.90;;;;;;4985815;28;20038;-77
2023/10/06 05:49:23;;;;;;;14.77;10.10;;;15.40;99.90;;;;;;4986923;28;20053;-77
2023/10/06 05:51:51;;;;;;;14.15;10.35;;;15.20;99.90;;;;;;4985257;28;20066;-76
2023/10/06 05:54:23;;;;;;;14.55;10.32;;;15.40;99.90;;;;;;4987520;28;20046;-77
2023/10/06 05:56:53;;;;;;;16.45;10.45;;;15.60;99.90;;;;;;4995374;28;20033;-75
2023/10/06 05:59:19;;;;;;;14.77;9.20;;;15.70;99.90;;;;;;4984139;28;20046;-76
2023/10/06 06:01:46;;;;;;;16.30;10.65;;;15.80;99.90;;;;;;4994528;28;20121;-76
2023/10/06 06:04:12;;;;;;;17.20;9.77;;;15.80;99.90;;;;;;4993584;28;20021;-77
2023/10/06 06:06:38;;;;;;;12.40;8.18;;;15.80;99.90;;;;;;4987314;28;20427;-77
2023/10/06 06:09:14;;;;;;;13.57;9.50;;;15.80;99.90;;;;;;4989394;28;20604;-77
2023/10/06 06:11:40;;;;;;;15.20;8.95;;;16.00;99.90;;;;;;4985937;28;20030;-76
2023/10/06 06:14:06;;;;;;;13.35;8.65;;;16.10;99.90;;;;;;4990609;28;20049;-77
2023/10/06 06:16:32;;;;;;;13.13;8.23;;;16.10;99.90;;;;;;4987384;28;20129;-77
2023/10/06 06:18:58;;;;;;;12.52;7.60;;;16.10;99.90;;;;;;4990204;28;20056;-78
2023/10/06 06:21:24;;;;;;;13.35;9.20;;;16.10;99.90;;;;;;4985210;28;20034;-77
2023/10/06 06:23:51;;;;;;;16.33;7.72;;;16.20;99.90;;;;;;4990267;28;20041;-77
2023/10/06 06:26:17;;;;;;;12.88;7.60;;;16.30;99.90;;;;;;4999437;28;20029;-78
2023/10/06 06:28:44;;;;;;;16.23;7.85;;;16.30;99.90;;;;;;4985773;28;20030;-77
2023/10/06 06:31:19;;;;;;;11.15;7.22;;;16.40;99.90;;;;;;4988193;28;20114;-77
2023/10/06 06:33:48;;;;;;;15.43;8.40;;;16.30;99.90;;;;;;4990259;28;20072;-77
2023/10/06 06:36:14;;;;;;;12.98;8.25;;;16.20;99.90;;;;;;4987536;28;20077;-77
2023/10/06 06:38:40;;;;;;;12.63;8.60;;;16.30;99.90;;;;;;4986463;28;20031;-78
2023/10/06 06:41:08;;;;;;;13.32;8.40;;;16.20;99.90;;;;;;4990221;28;20039;-77
2023/10/06 06:43:33;;;;;;;15.90;9.65;;;16.30;99.90;;;;;;4995698;28;20782;-78
2023/10/06 06:45:59;;;;;;;12.32;8.23;;;16.40;99.90;;;;;;4986543;28;20061;-77
2023/10/06 06:48:26;;;;;;;14.05;8.95;;;16.50;99.90;;;;;;4989400;28;20100;-77
2023/10/06 06:50:52;;;;;;;14.18;9.15;;;16.50;99.90;;;;;;4994016;28;20077;-77
2023/10/06 06:53:18;;;;;;;13.40;8.32;;;16.60;99.90;;;;;;4992063;28;20432;-78
2023/10/06 06:55:45;;;;;;;17.00;8.38;;;16.60;99.90;;;;;;4990240;28;20429;-77
2023/10/06 06:58:11;;;;;;;13.23;9.13;;;16.70;99.90;;;;;;4991009;28;20521;-77
2023/10/06 07:00:41;;;;;;;12.85;9.48;;;16.60;99.90;;;;;;4994698;28;20061;-77
2023/10/06 07:03:07;;;;;;;16.42;10.23;;;16.60;99.90;;;;;;4996412;28;20125;-77
2023/10/06 07:05:36;;;;;;;11.98;8.40;;;16.60;99.90;;;;;;4998631;28;20085;-78
2023/10/06 07:08:04;;;;;;;17.27;9.30;;;16.60;99.90;;;;;;4988460;28;20044;-76
2023/10/06 07:10:31;;;;;;;15.40;9.02;;;16.60;99.90;;;;;;4994002;28;20040;-76
2023/10/06 07:13:00;;;;;;;13.07;8.75;;;16.70;99.90;;;;;;4993471;28;20100;-76
2023/10/06 07:15:29;;;;;;;15.45;8.00;;;16.70;99.90;;;;;;4979047;28;20452;-76
2023/10/06 07:17:57;;;;;;;14.32;8.07;;;16.70;99.90;;;;;;4984805;28;20058;-75
2023/10/06 07:20:27;;;;;;;13.05;8.30;;;16.70;99.90;;;;;;4988026;28;20034;-76
2023/10/06 07:23:00;;;;;;;13.65;8.75;;;16.60;99.90;;;;;;4991685;28;20042;-74
2023/10/06 07:25:26;;;;;;;13.52;8.25;;;16.60;99.90;;;;;;4992069;28;20587;-77
2023/10/06 07:27:57;;;;;;;13.52;8.95;;;16.70;99.90;;;;;;4996320;28;20037;-75
2023/10/06 07:30:25;;;;;;;13.43;9.50;;;16.70;99.90;;;;;;4985765;28;20034;-74
2023/10/06 07:32:54;;;;;;;19.13;8.30;;;16.70;99.90;;;;;;4990368;28;20132;-74
2023/10/06 07:35:30;;;;;;;13.43;8.15;;;16.70;99.90;;;;;;4984416;28;20065;-75
2023/10/06 07:37:56;;;;;;;11.27;7.72;;;16.60;99.90;;;;;;4988731;28;20030;-75
2023/10/06 07:40:22;;;;;;;14.45;8.15;;;16.70;99.90;;;;;;4988777;28;20125;-75
2023/10/06 07:42:50;;;;;;;12.07;8.27;;;16.70;99.90;;;;;;4986538;28;20038;-76
2023/10/06 07:45:17;;;;;;;14.00;8.18;;;16.80;99.90;;;;;;4989117;28;20027;-75
2023/10/06 07:47:43;;;;;;;11.18;7.70;;;16.80;99.90;;;;;;4992105;28;20113;-75
2023/10/06 07:50:13;;;;;;;16.13;8.38;;;16.80;99.90;;;;;;4984790;28;20057;-75
2023/10/06 07:52:39;;;;;;;16.85;8.15;;;16.90;99.90;;;;;;4989620;28;20046;-75
2023/10/06 07:55:06;;;;;;;12.68;7.25;;;16.90;99.90;;;;;;4987580;28;20121;-75
2023/10/06 07:57:34;;;;;;;14.30;7.53;;;17.00;99.90;;;;;;4991027;28;20096;-75
2023/10/06 08:00:00;;;;;;;14.45;7.60;;;17.00;99.90;;;;;;4984787;28;20058;-75
2023/10/06 08:02:29;;;;;;;14.73;8.18;;;16.90;99.90;;;;;;4985810;28;20671;-76
2023/10/06 08:04:55;;;;;;;12.40;8.55;;;16.80;99.90;;;;;;4986060;28;20077;-76
2023/10/06 08:07:26;;;;;;;13.63;7.35;;;16.90;99.90;;;;;;4987381;28;20034;-74
2023/10/06 08:09:53;;;;;;;12.05;8.15;;;17.00;99.90;;;;;;4986721;28;20113;-75
2023/10/06 08:12:19;;;;;;;16.13;8.25;;;17.00;99.90;;;;;;4992366;28;20022;-74
2023/10/06 08:14:44;;;;;;;11.88;8.10;;;17.10;99.90;;;;;;4986500;28;20080;-76
2023/10/06 08:17:10;;;;;;;14.75;8.27;;;17.20;99.90;;;;;;4989795;28;20037;-75
2023/10/06 08:19:36;;;;;;;12.52;7.70;;;17.10;99.90;;;;;;4989317;28;20045;-75
2023/10/06 08:22:01;;;;;;;14.45;8.23;;;17.20;99.90;;;;;;4985000;28;20041;-75
2023/10/06 08:24:27;;;;;;;13.27;8.55;;;17.20;99.90;;;;;;4988118;28;20022;-76
2023/10/06 08:26:54;;;;;;;14.80;8.65;;;17.30;99.90;;;;;;4997969;28;20034;-75
2023/10/06 08:29:20;;;;;;;12.30;8.73;;;17.30;99.90;;;;;;4986162;28;20061;-75
2023/10/06 08:31:46;;;;;;;14.73;9.13;;;17.40;99.90;;;;;;4985190;28;20068;-76
2023/10/06 08:34:12;;;;;;;15.27;8.13;;;17.60;99.90;;;;;;4987258;28;20035;-75
2023/10/06 08:36:41;;;;;;;13.32;8.07;;;17.70;99.90;;;;;;4985968;28;20054;-75
2023/10/06 08:39:08;;;;;;;12.80;8.32;;;17.80;99.90;;;;;;4988740;28;20030;-75
2023/10/06 08:41:43;;;;;;;11.50;7.75;;;17.90;99.90;;;;;;4992160;28;20030;-76
2023/10/06 08:44:12;;;;;;;12.07;8.48;;;17.90;99.90;;;;;;4992036;28;20414;-75
2023/10/06 08:46:43;;;;;;;14.38;8.35;;;18.00;99.90;;;;;;4984773;28;20030;-75
2023/10/06 08:49:10;;;;;;;13.25;7.80;;;17.90;99.90;;;;;;4987748;28;20452;-75
2023/10/06 08:51:38;;;;;;;15.98;9.23;;;17.90;99.90;;;;;;4992939;28;20118;-75
2023/10/06 08:54:07;;;;;;;12.05;8.27;;;17.90;99.90;;;;;;4985165;28;20040;-75
2023/10/06 08:56:34;;;;;;;13.23;8.35;;;18.00;99.90;;;;;;4989215;28;20065;-74
2023/10/06 08:59:00;;;;;;;13.55;8.07;;;17.90;99.90;;;;;;4989624;28;20053;-74
2023/10/06 09:01:29;;;;;;;13.35;8.05;;;18.00;99.90;;;;;;4990459;28;20108;-75
2023/10/06 09:04:03;;;;;;;12.77;7.85;;;17.90;99.90;;;;;;4986125;28;20042;-75
2023/10/06 09:06:29;;;;;;;15.48;8.95;;;18.00;99.90;;;;;;4993061;28;20553;-74
2023/10/06 09:08:55;;;;;;;9.95;6.82;;;18.10;99.90;;;;;;4986806;28;20029;-76
2023/10/06 09:11:40;;;;;;;11.35;7.82;;;18.10;99.90;;;;;;4986049;28;20033;-75
2023/10/06 09:14:07;;;;;;;11.48;7.55;;;18.10;99.90;;;;;;4984497;28;20038;-75
2023/10/06 09:16:49;;;;;;;13.98;7.78;;;18.20;99.90;;;;;;4985878;28;20617;-75
2023/10/06 09:19:14;;;;;;;14.15;7.18;;;18.20;99.90;;;;;;4993803;28;20033;-74
2023/10/06 09:22:01;;;;;;;11.63;8.07;;;18.30;99.90;;;;;;4991887;28;20030;-74
2023/10/06 09:24:27;;;;;;;10.82;6.85;;;18.50;99.90;;;;;;4983764;28;20023;-77
2023/10/06 09:26:55;;;;;;;13.77;7.63;;;18.60;99.90;;;;;;4985689;28;20057;-76
2023/10/06 09:29:35;;;;;;;13.10;7.47;;;18.60;99.90;;;;;;4987237;28;20448;-73
2023/10/06 09:32:19;;;;;;;11.88;6.90;;;18.60;99.90;;;;;;4980560;28;20022;-76
2023/10/06 09:34:45;;;;;;;22.03;7.40;;;18.70;99.90;;;;;;4986369;28;20030;-75
2023/10/06 09:37:20;;;;;;;21.50;7.25;;;18.70;99.90;;;;;;4988670;28;20029;-76
2023/10/06 09:40:10;;;;;;;20.38;7.60;;;18.70;99.90;;;;;;4985050;28;20137;-76
2023/10/06 09:42:36;;;;;;;9.68;6.70;;;18.80;99.90;;;;;;4985847;28;20081;-76
2023/10/06 09:45:15;;;;;;;13.48;7.05;;;18.80;99.90;;;;;;4981554;28;20030;-77
2023/10/06 09:47:49;;;;;;;11.27;7.40;;;18.80;99.90;;;;;;4983889;28;20041;-75
2023/10/06 09:50:19;;;;;;;10.45;6.57;;;18.90;99.90;;;;;;4984789;28;20034;-76
2023/10/06 09:52:47;;;;;;;9.90;6.95;;;19.10;99.90;;;;;;4982830;28;20041;-76
2023/10/06 09:55:15;;;;;;;13.52;6.85;;;19.00;99.90;;;;;;4983682;28;20030;-75
2023/10/06 09:57:43;;;;;;;14.98;7.53;;;19.30;99.90;;;;;;4986305;28;20034;-76
2023/10/06 10:00:16;;;;;;;14.88;7.43;;;19.40;99.90;;;;;;4983328;28;20131;-75
2023/10/06 10:02:44;;;;;;;16.50;7.03;;;19.40;99.90;;;;;;4980807;28;20031;-74
2023/10/06 10:05:12;;;;;;;12.90;7.07;;;19.30;99.90;;;;;;4983762;28;20104;-76
2023/10/06 10:07:40;;;;;;;15.77;6.63;;;19.40;99.90;;;;;;4986637;28;20029;-77
2023/10/06 10:10:10;;;;;;;12.85;7.28;;;19.50;99.90;;;;;;4981955;28;20100;-76
2023/10/06 10:12:55;;;;;;;12.32;7.45;;;19.50;99.90;;;;;;4983380;28;20057;-76
2023/10/06 10:15:59;;;;;;;;;;;19.60;99.90;;;;;;4986056;28;20109;-76
2023/10/06 10:18:39;;;;;;;17.17;6.95;;;19.70;99.90;;;;;;4947400;28;20017;-76
2023/10/06 10:21:08;;;;;;;26.95;7.65;;;19.80;99.90;;;;;;4949160;28;20038;-75
2023/10/06 10:23:39;;;;;;;11.90;7.03;;;20.00;99.90;;;;;;4966226;28;20485;-76
2023/10/06 10:26:39;;;;;;;12.93;7.50;;;20.20;99.90;;;;;;4985003;28;20035;-77
2023/10/06 10:29:13;;;;;;;12.68;6.80;;;20.10;99.90;;;;;;4949015;28;20039;-76
2023/10/06 10:31:51;;;;;;;11.27;6.60;;;20.00;99.90;;;;;;4986428;28;20037;-75
2023/10/06 10:34:25;;;;;;;16.05;7.72;;;20.10;99.90;;;;;;4987752;28;20121;-75
2023/10/06 10:37:12;;;;;;;13.35;7.78;;;20.40;99.90;;;;;;4993119;28;20048;-76
2023/10/06 10:39:51;;;;;;;11.30;7.07;;;20.40;99.90;;;;;;4963364;28;20038;-76
2023/10/06 10:42:37;;;;;;;10.20;6.60;;;20.60;99.90;;;;;;4992427;28;20100;-76
2023/10/06 10:45:38;;;;;;;11.65;6.90;;;20.60;99.90;;;;;;4988667;28;20030;-75
2023/10/06 10:48:13;;;;;;;20.52;7.30;;;20.70;99.90;;;;;;4956358;28;20100;-76
2023/10/06 10:50:59;;;;;;;12.65;7.05;;;20.90;99.90;;;;;;4991498;28;20354;-75
2023/10/06 10:53:47;;;;;;;13.27;7.10;;;21.10;99.90;;;;;;4987067;28;20064;-75
2023/10/06 10:56:34;;;;;;;10.65;6.90;;;21.20;99.90;;;;;;4994312;28;20073;-75
2023/10/06 10:59:00;;;;;;;10.02;6.55;;;21.20;99.90;;;;;;4997879;28;20132;-75
2023/10/06 11:01:35;;;;;;;11.55;6.45;;;21.10;99.90;;;;;;4999606;28;20666;-75
2023/10/06 11:04:13;;;;;;;14.77;7.10;;;21.20;99.90;;;;;;4995450;28;20030;-76
2023/10/06 11:06:39;;;;;;;13.90;6.50;;;21.40;99.90;;;;;;4995314;28;20026;-76
2023/10/06 11:09:22;;;;;;;12.18;7.30;;;21.50;99.90;;;;;;4994193;28;20037;-75
2023/10/06 11:11:48;;;;;;;14.43;7.20;;;21.50;99.90;;;;;;4987504;28;20028;-76
2023/10/06 11:14:14;;;;;;;11.20;7.38;;;21.60;99.90;;;;;;4993357;28;20375;-76
2023/10/06 11:16:49;;;;;;;13.13;7.00;;;21.70;99.90;;;;;;4996895;28;20228;-77
2023/10/06 11:19:15;;;;;;;11.80;6.93;;;21.70;99.90;;;;;;4983923;28;20355;-75
2023/10/06 11:21:44;;;;;;;12.20;7.65;;;21.80;99.90;;;;;;4989020;28;20038;-75
2023/10/06 11:24:10;;;;;;;10.82;7.57;;;21.90;99.90;;;;;;5001895;28;20073;-76
2023/10/06 11:26:36;;;;;;;12.43;7.07;;;22.00;99.90;;;;;;4999049;28;20034;-75
2023/10/06 11:29:03;;;;;;;12.77;7.68;;;22.30;99.90;;;;;;4989824;28;20146;-75
2023/10/06 11:31:29;;;;;;;12.18;6.57;;;22.40;99.60;;;;;;4985285;28;20041;-75
2023/10/06 11:33:56;;;;;;;13.32;6.38;;;22.50;99.70;;;;;;4987888;28;20041;-76
2023/10/06 11:36:22;;;;;;;13.35;7.57;;;22.80;99.70;;;;;;4989846;28;20545;-75
2023/10/06 11:38:48;;;;;;;11.80;7.78;;;22.80;99.20;;;;;;4991864;28;20042;-75
2023/10/06 11:41:24;;;;;;;17.90;7.93;;;22.90;99.90;;;;;;4987934;28;20827;-75
2023/10/06 11:43:58;;;;;;;11.10;7.28;;;22.70;98.70;;;;;;4993580;28;20019;-75
2023/10/06 11:46:23;;;;;;;11.68;7.60;;;22.60;98.80;;;;;;4990593;28;20029;-77
2023/10/06 11:48:52;;;;;;;18.90;8.32;;;22.60;98.80;;;;;;4990686;28;20478;-75
2023/10/06 11:51:17;;;;;;;12.48;7.80;;;22.60;98.40;;;;;;4989529;28;20110;-75
2023/10/06 11:53:44;;;;;;;10.85;7.72;;;22.70;98.70;;;;;;4987193;28;20106;-76
2023/10/06 11:56:10;;;;;;;11.23;7.22;;;22.70;98.80;;;;;;4990185;28;20042;-75
2023/10/06 11:58:37;;;;;;;11.55;6.95;;;22.50;98.80;;;;;;5000109;28;20048;-75
2023/10/06 12:01:04;;;;;;;12.85;7.88;;;22.70;99.70;;;;;;4990136;28;20716;-74
2023/10/06 12:03:42;;;;;;;12.55;7.10;;;22.90;98.60;;;;;;4987675;28;20540;-74
2023/10/06 12:06:14;;;;;;;12.07;7.10;;;22.90;99.00;;;;;;4988446;28;20319;-74
2023/10/06 12:08:52;;;;;;;9.65;6.70;;;23.10;98.90;;;;;;4985259;28;20116;-77
2023/10/06 12:11:20;;;;;;;10.43;7.10;;;23.20;98.40;;;;;;4983567;28;20034;-75
2023/10/06 12:13:46;;;;;;;10.98;7.10;;;23.20;98.40;;;;;;4974790;28;20376;-75
2023/10/06 12:16:15;;;;;;;10.15;7.05;;;22.90;98.60;;;;;;4983671;28;20046;-75
2023/10/06 12:18:44;;;;;;;14.43;7.07;;;23.00;99.10;;;;;;4995484;28;20816;-74
2023/10/06 12:21:14;;;;;;;14.40;7.47;;;22.90;98.70;;;;;;4989608;28;20126;-77
2023/10/06 12:23:41;;;;;;;9.90;6.55;;;22.90;98.90;;;;;;4991769;28;20026;-76
2023/10/06 12:26:06;;;;;;;12.65;7.50;;;22.90;99.50;;;;;;4986927;28;20624;-76
2023/10/06 12:28:32;;;;;;;10.68;7.22;;;22.90;98.90;;;;;;4982876;28;20030;-77
2023/10/06 12:30:58;;;;;;;12.20;7.43;;;23.00;98.90;;;;;;4985500;28;20687;-77
2023/10/06 12:33:24;;;;;;;12.90;7.15;;;23.10;99.70;;;;;;4992292;28;20038;-76
2023/10/06 12:35:52;;;;;;;11.32;7.60;;;23.40;99.00;;;;;;4983739;28;20081;-76
2023/10/06 12:38:22;;;;;;;12.02;7.25;;;23.40;98.90;;;;;;4982385;28;20040;-77
2023/10/06 12:40:48;;;;;;;11.50;7.07;;;23.40;99.50;;;;;;4981945;28;20034;-76
2023/10/06 12:43:16;;;;;;;11.48;8.00;;;23.40;99.00;;;;;;4991447;28;20111;-80
2023/10/06 12:45:42;;;;;;;12.18;8.23;;;23.10;98.60;;;;;;4990035;28;20496;-77
2023/10/06 12:48:07;;;;;;;11.07;7.22;;;23.20;99.20;;;;;;4984655;28;20034;-76
2023/10/06 12:50:40;;;;;;;12.07;8.02;;;23.30;99.20;;;;;;4990974;28;20461;-81
2023/10/06 12:53:08;;;;;;;14.18;7.85;;;23.30;98.90;;;;;;4987812;28;20045;-75
2023/10/06 12:55:41;;;;;;;15.23;8.13;;;23.10;98.90;;;;;;4986499;28;20037;-76
2023/10/06 12:58:11;;;;;;;12.45;7.22;;;23.20;98.70;;;;;;4988994;28;20030;-77